sensor_id;sensor_type;location;lat;lon;timestamp;P1;durP1;ratioP1;P2;durP2;ratioP2
11590;SDS011;5851;54.050;9.974;2023-11-21T00:01:26;6.20;;;4.40;;
11590;SDS011;5851;54.050;9.974;2023-11-21T00:03:53;5.93;;;4.50;;
11590;SDS011;5851;54.050;9.974;2023-11-21T00:06:20;5.40;;;4.37;;
11590;SDS011;5851;54.050;9.974;2023-11-21T00:08:47;5.50;;;4.73;;
11590;SDS011;5851;54.050;9.974;2023-11-21T00:11:14;6.20;;;4.87;;
11590;SDS011;5851;54.050;9.974;2023-11-21T00:13:41;6.97;;;5.00;;
11590;SDS011;5851;54.050;9.974;2023-11-21T00:16:08;6.30;;;5.10;;
11590;SDS011;5851;54.050;9.974;2023-11-21T00:18:37;7.07;;;5.10;;
11590;SDS011;5851;54.050;9.974;2023-11-21T00:21:04;7.00;;;5.47;;
11590;SDS011;5851;54.050;9.974;2023-11-21T00:23:32;7.73;;;5.63;;
11590;SDS011;5851;54.050;9.974;2023-11-21T00:25:58;6.80;;;5.57;;
11590;SDS011;5851;54.050;9.974;2023-11-21T00:28:26;8.67;;;5.90;;
11590;SDS011;5851;54.050;9.974;2023-11-21T00:30:53;8.17;;;5.73;;
11590;SDS011;5851;54.050;9.974;2023-11-21T00:33:20;8.40;;;6.30;;
11590;SDS011;5851;54.050;9.974;2023-11-21T00:35:48;7.70;;;5.57;;
11590;SDS011;5851;54.050;9.974;2023-11-21T00:38:15;9.57;;;6.93;;
11590;SDS011;5851;54.050;9.974;2023-11-21T00:40:45;8.77;;;6.13;;
11590;SDS011;5851;54.050;9.974;2023-11-21T00:43:12;8.27;;;6.40;;
11590;SDS011;5851;54.050;9.974;2023-11-21T00:45:39;7.60;;;6.13;;
11590;SDS011;5851;54.050;9.974;2023-11-21T00:48:06;9.07;;;6.60;;
11590;SDS011;5851;54.050;9.974;2023-11-21T00:50:33;8.65;;;7.28;;
11590;SDS011;5851;54.050;9.974;2023-11-21T00:53:01;9.07;;;6.30;;
11590;SDS011;5851;54.050;9.974;2023-11-21T00:55:28;7.30;;;5.40;;
11590;SDS011;5851;54.050;9.974;2023-11-21T00:57:55;7.43;;;5.80;;
11590;SDS011;5851;54.050;9.974;2023-11-21T01:00:23;8.63;;;6.20;;
11590;SDS011;5851;54.050;9.974;2023-11-21T01:02:50;8.37;;;5.90;;
11590;SDS011;5851;54.050;9.974;2023-11-21T01:05:17;8.47;;;5.83;;
11590;SDS011;5851;54.050;9.974;2023-11-21T01:07:45;8.80;;;5.90;;
11590;SDS011;5851;54.050;9.974;2023-11-21T01:10:13;8.47;;;6.07;;
11590;SDS011;5851;54.050;9.974;2023-11-21T01:12:42;7.67;;;5.60;;
11590;SDS011;5851;54.050;9.974;2023-11-21T01:15:09;6.47;;;5.20;;
11590;SDS011;5851;54.050;9.974;2023-11-21T01:17:37;7.33;;;5.63;;
11590;SDS011;5851;54.050;9.974;2023-11-21T01:20:05;8.10;;;5.97;;
11590;SDS011;5851;54.050;9.974;2023-11-21T01:22:36;7.43;;;5.27;;
11590;SDS011;5851;54.050;9.974;2023-11-21T01:25:04;10.30;;;6.37;;
11590;SDS011;5851;54.050;9.974;2023-11-21T01:27:34;8.70;;;6.20;;
11590;SDS011;5851;54.050;9.974;2023-11-21T01:30:02;8.47;;;5.80;;
11590;SDS011;5851;54.050;9.974;2023-11-21T01:32:29;8.20;;;5.40;;
11590;SDS011;5851;54.050;9.974;2023-11-21T01:34:56;9.40;;;6.00;;
11590;SDS011;5851;54.050;9.974;2023-11-21T01:37:24;7.70;;;5.17;;
11590;SDS011;5851;54.050;9.974;2023-11-21T01:39:52;6.93;;;5.40;;
11590;SDS011;5851;54.050;9.974;2023-11-21T01:42:20;8.20;;;5.57;;
11590;SDS011;5851;54.050;9.974;2023-11-21T01:44:48;6.40;;;5.30;;
11590;SDS011;5851;54.050;9.974;2023-11-21T01:47:15;7.87;;;5.07;;
11590;SDS011;5851;54.050;9.974;2023-11-21T01:49:43;10.27;;;5.97;;
11590;SDS011;5851;54.050;9.974;2023-11-21T01:52:11;7.30;;;5.80;;
11590;SDS011;5851;54.050;9.974;2023-11-21T01:54:38;8.80;;;5.80;;
11590;SDS011;5851;54.050;9.974;2023-11-21T01:57:07;8.37;;;5.90;;
11590;SDS011;5851;54.050;9.974;2023-11-21T01:59:35;7.37;;;5.90;;
11590;SDS011;5851;54.050;9.974;2023-11-21T02:02:04;7.90;;;6.00;;
11590;SDS011;5851;54.050;9.974;2023-11-21T02:04:32;8.17;;;5.73;;
11590;SDS011;5851;54.050;9.974;2023-11-21T02:06:59;9.13;;;6.07;;
11590;SDS011;5851;54.050;9.974;2023-11-21T02:09:26;6.97;;;5.57;;
11590;SDS011;5851;54.050;9.974;2023-11-21T02:11:54;8.53;;;5.73;;
11590;SDS011;5851;54.050;9.974;2023-11-21T02:14:23;7.73;;;6.10;;
11590;SDS011;5851;54.050;9.974;2023-11-21T02:16:52;7.17;;;5.80;;
11590;SDS011;5851;54.050;9.974;2023-11-21T02:19:21;8.03;;;5.57;;
11590;SDS011;5851;54.050;9.974;2023-11-21T02:21:50;8.00;;;5.73;;
11590;SDS011;5851;54.050;9.974;2023-11-21T02:24:19;9.73;;;6.75;;
11590;SDS011;5851;54.050;9.974;2023-11-21T02:26:46;9.00;;;6.17;;
11590;SDS011;5851;54.050;9.974;2023-11-21T02:29:13;7.40;;;5.63;;
11590;SDS011;5851;54.050;9.974;2023-11-21T02:31:43;7.97;;;5.40;;
11590;SDS011;5851;54.050;9.974;2023-11-21T02:34:14;8.48;;;6.32;;
11590;SDS011;5851;54.050;9.974;2023-11-21T02:36:41;6.83;;;5.43;;
11590;SDS011;5851;54.050;9.974;2023-11-21T02:39:08;8.55;;;6.43;;
11590;SDS011;5851;54.050;9.974;2023-11-21T02:41:37;7.60;;;5.70;;
11590;SDS011;5851;54.050;9.974;2023-11-21T02:44:05;8.40;;;6.17;;
11590;SDS011;5851;54.050;9.974;2023-11-21T02:46:32;8.23;;;5.80;;
11590;SDS011;5851;54.050;9.974;2023-11-21T02:49:00;9.20;;;5.93;;
11590;SDS011;5851;54.050;9.974;2023-11-21T02:51:27;8.00;;;6.10;;
11590;SDS011;5851;54.050;9.974;2023-11-21T02:53:54;8.30;;;6.23;;
11590;SDS011;5851;54.050;9.974;2023-11-21T02:56:23;8.07;;;6.20;;
11590;SDS011;5851;54.050;9.974;2023-11-21T02:58:52;7.67;;;5.83;;
11590;SDS011;5851;54.050;9.974;2023-11-21T03:01:21;8.20;;;5.77;;
11590;SDS011;5851;54.050;9.974;2023-11-21T03:03:48;7.87;;;5.73;;
11590;SDS011;5851;54.050;9.974;2023-11-21T03:06:16;8.17;;;5.60;;
11590;SDS011;5851;54.050;9.974;2023-11-21T03:08:43;7.50;;;5.50;;
11590;SDS011;5851;54.050;9.974;2023-11-21T03:11:10;8.33;;;6.37;;
11590;SDS011;5851;54.050;9.974;2023-11-21T03:13:38;10.57;;;6.20;;
11590;SDS011;5851;54.050;9.974;2023-11-21T03:16:08;9.57;;;6.50;;
11590;SDS011;5851;54.050;9.974;2023-11-21T03:18:35;8.83;;;6.07;;
11590;SDS011;5851;54.050;9.974;2023-11-21T03:21:02;8.77;;;6.53;;
11590;SDS011;5851;54.050;9.974;2023-11-21T03:23:29;9.67;;;6.80;;
11590;SDS011;5851;54.050;9.974;2023-11-21T03:25:56;10.38;;;7.13;;
11590;SDS011;5851;54.050;9.974;2023-11-21T03:28:23;12.53;;;7.20;;
11590;SDS011;5851;54.050;9.974;2023-11-21T03:30:50;10.53;;;7.13;;
11590;SDS011;5851;54.050;9.974;2023-11-21T03:33:18;8.97;;;6.30;;
11590;SDS011;5851;54.050;9.974;2023-11-21T03:35:45;8.00;;;5.80;;
11590;SDS011;5851;54.050;9.974;2023-11-21T03:38:12;7.67;;;5.93;;
11590;SDS011;5851;54.050;9.974;2023-11-21T03:40:39;8.33;;;6.00;;
11590;SDS011;5851;54.050;9.974;2023-11-21T03:43:06;9.53;;;6.07;;
11590;SDS011;5851;54.050;9.974;2023-11-21T03:45:33;9.67;;;7.53;;
11590;SDS011;5851;54.050;9.974;2023-11-21T03:48:00;8.57;;;7.23;;
11590;SDS011;5851;54.050;9.974;2023-11-21T03:50:28;9.27;;;7.20;;
11590;SDS011;5851;54.050;9.974;2023-11-21T03:52:56;9.83;;;7.30;;
11590;SDS011;5851;54.050;9.974;2023-11-21T03:55:23;10.80;;;7.60;;
11590;SDS011;5851;54.050;9.974;2023-11-21T03:57:50;8.23;;;6.80;;
11590;SDS011;5851;54.050;9.974;2023-11-21T04:00:17;9.77;;;7.50;;
11590;SDS011;5851;54.050;9.974;2023-11-21T04:02:46;11.20;;;7.67;;
11590;SDS011;5851;54.050;9.974;2023-11-21T04:05:13;12.20;;;7.90;;
11590;SDS011;5851;54.050;9.974;2023-11-21T04:07:41;13.10;;;8.27;;
11590;SDS011;5851;54.050;9.974;2023-11-21T04:10:08;11.63;;;7.53;;
11590;SDS011;5851;54.050;9.974;2023-11-21T04:12:37;11.53;;;7.60;;
11590;SDS011;5851;54.050;9.974;2023-11-21T04:15:05;10.87;;;7.70;;
11590;SDS011;5851;54.050;9.974;2023-11-21T04:17:33;10.27;;;7.20;;
11590;SDS011;5851;54.050;9.974;2023-11-21T04:20:01;9.50;;;7.23;;
11590;SDS011;5851;54.050;9.974;2023-11-21T04:22:31;9.23;;;6.50;;
11590;SDS011;5851;54.050;9.974;2023-11-21T04:24:59;9.40;;;7.27;;
11590;SDS011;5851;54.050;9.974;2023-11-21T04:27:26;8.30;;;6.63;;
11590;SDS011;5851;54.050;9.974;2023-11-21T04:29:53;9.37;;;6.60;;
11590;SDS011;5851;54.050;9.974;2023-11-21T04:32:20;8.87;;;5.57;;
11590;SDS011;5851;54.050;9.974;2023-11-21T04:34:47;7.77;;;5.23;;
11590;SDS011;5851;54.050;9.974;2023-11-21T04:37:14;8.47;;;5.40;;
11590;SDS011;5851;54.050;9.974;2023-11-21T04:39:40;9.17;;;4.93;;
11590;SDS011;5851;54.050;9.974;2023-11-21T04:42:09;7.23;;;5.27;;
11590;SDS011;5851;54.050;9.974;2023-11-21T04:44:37;6.20;;;4.87;;
11590;SDS011;5851;54.050;9.974;2023-11-21T04:47:06;7.10;;;5.10;;
11590;SDS011;5851;54.050;9.974;2023-11-21T04:49:33;8.20;;;4.77;;
11590;SDS011;5851;54.050;9.974;2023-11-21T04:52:00;8.23;;;4.23;;
11590;SDS011;5851;54.050;9.974;2023-11-21T04:54:28;6.60;;;4.53;;
11590;SDS011;5851;54.050;9.974;2023-11-21T04:56:56;6.87;;;5.17;;
11590;SDS011;5851;54.050;9.974;2023-11-21T04:59:25;8.43;;;4.73;;
11590;SDS011;5851;54.050;9.974;2023-11-21T05:01:52;6.13;;;4.80;;
11590;SDS011;5851;54.050;9.974;2023-11-21T05:04:20;8.77;;;5.20;;
11590;SDS011;5851;54.050;9.974;2023-11-21T05:06:47;8.60;;;5.00;;
11590;SDS011;5851;54.050;9.974;2023-11-21T05:09:14;7.23;;;5.60;;
11590;SDS011;5851;54.050;9.974;2023-11-21T05:11:41;5.80;;;5.00;;
11590;SDS011;5851;54.050;9.974;2023-11-21T05:14:08;7.87;;;5.83;;
11590;SDS011;5851;54.050;9.974;2023-11-21T05:16:37;8.23;;;5.20;;
11590;SDS011;5851;54.050;9.974;2023-11-21T05:19:04;7.33;;;5.13;;
11590;SDS011;5851;54.050;9.974;2023-11-21T05:21:31;8.10;;;5.47;;
11590;SDS011;5851;54.050;9.974;2023-11-21T05:23:58;7.30;;;5.20;;
11590;SDS011;5851;54.050;9.974;2023-11-21T05:26:25;6.03;;;5.00;;
11590;SDS011;5851;54.050;9.974;2023-11-21T05:28:52;7.60;;;4.93;;
11590;SDS011;5851;54.050;9.974;2023-11-21T05:31:19;7.60;;;5.20;;
11590;SDS011;5851;54.050;9.974;2023-11-21T05:33:47;7.87;;;5.30;;
11590;SDS011;5851;54.050;9.974;2023-11-21T05:36:14;8.03;;;5.90;;
11590;SDS011;5851;54.050;9.974;2023-11-21T05:38:41;7.57;;;5.47;;
11590;SDS011;5851;54.050;9.974;2023-11-21T05:41:08;8.47;;;5.83;;
11590;SDS011;5851;54.050;9.974;2023-11-21T05:43:38;8.30;;;6.00;;
11590;SDS011;5851;54.050;9.974;2023-11-21T05:46:05;8.17;;;5.77;;
11590;SDS011;5851;54.050;9.974;2023-11-21T05:48:34;7.67;;;5.93;;
11590;SDS011;5851;54.050;9.974;2023-11-21T05:51:04;8.13;;;6.37;;
11590;SDS011;5851;54.050;9.974;2023-11-21T05:53:31;8.70;;;5.50;;
11590;SDS011;5851;54.050;9.974;2023-11-21T05:55:58;7.40;;;5.40;;
11590;SDS011;5851;54.050;9.974;2023-11-21T05:58:24;7.63;;;5.97;;
11590;SDS011;5851;54.050;9.974;2023-11-21T06:00:51;6.97;;;5.30;;
11590;SDS011;5851;54.050;9.974;2023-11-21T06:03:18;6.73;;;5.70;;
11590;SDS011;5851;54.050;9.974;2023-11-21T06:05:45;6.63;;;5.17;;
11590;SDS011;5851;54.050;9.974;2023-11-21T06:08:13;6.67;;;5.43;;
11590;SDS011;5851;54.050;9.974;2023-11-21T06:10:42;6.70;;;5.03;;
11590;SDS011;5851;54.050;9.974;2023-11-21T06:13:09;8.03;;;5.47;;
11590;SDS011;5851;54.050;9.974;2023-11-21T06:15:36;6.93;;;4.70;;
11590;SDS011;5851;54.050;9.974;2023-11-21T06:18:03;7.17;;;4.97;;
11590;SDS011;5851;54.050;9.974;2023-11-21T06:20:35;7.57;;;4.80;;
11590;SDS011;5851;54.050;9.974;2023-11-21T06:23:02;7.33;;;4.73;;
11590;SDS011;5851;54.050;9.974;2023-11-21T06:25:31;8.30;;;5.00;;
11590;SDS011;5851;54.050;9.974;2023-11-21T06:27:58;6.27;;;4.83;;
11590;SDS011;5851;54.050;9.974;2023-11-21T06:30:25;6.03;;;4.97;;
11590;SDS011;5851;54.050;9.974;2023-11-21T06:32:52;7.13;;;4.80;;
11590;SDS011;5851;54.050;9.974;2023-11-21T06:35:24;6.87;;;4.77;;
11590;SDS011;5851;54.050;9.974;2023-11-21T06:37:52;7.30;;;4.70;;
11590;SDS011;5851;54.050;9.974;2023-11-21T06:40:19;6.97;;;4.43;;
11590;SDS011;5851;54.050;9.974;2023-11-21T06:42:48;5.77;;;4.23;;
11590;SDS011;5851;54.050;9.974;2023-11-21T06:45:15;6.07;;;4.60;;
11590;SDS011;5851;54.050;9.974;2023-11-21T06:47:42;6.37;;;4.50;;
11590;SDS011;5851;54.050;9.974;2023-11-21T06:50:09;6.70;;;4.63;;
11590;SDS011;5851;54.050;9.974;2023-11-21T06:52:36;6.33;;;4.37;;
11590;SDS011;5851;54.050;9.974;2023-11-21T06:55:04;6.23;;;3.97;;
11590;SDS011;5851;54.050;9.974;2023-11-21T06:57:33;6.63;;;4.43;;
11590;SDS011;5851;54.050;9.974;2023-11-21T07:00:02;6.27;;;4.37;;
11590;SDS011;5851;54.050;9.974;2023-11-21T07:02:30;5.40;;;4.20;;
11590;SDS011;5851;54.050;9.974;2023-11-21T07:04:57;4.97;;;3.90;;
11590;SDS011;5851;54.050;9.974;2023-11-21T07:07:24;6.20;;;3.87;;
11590;SDS011;5851;54.050;9.974;2023-11-21T07:09:51;5.80;;;3.90;;
11590;SDS011;5851;54.050;9.974;2023-11-21T07:12:18;5.17;;;3.73;;
11590;SDS011;5851;54.050;9.974;2023-11-21T07:14:44;6.10;;;4.00;;
11590;SDS011;5851;54.050;9.974;2023-11-21T07:17:13;4.23;;;3.73;;
11590;SDS011;5851;54.050;9.974;2023-11-21T07:19:41;5.50;;;4.17;;
11590;SDS011;5851;54.050;9.974;2023-11-21T07:22:08;5.53;;;4.10;;
11590;SDS011;5851;54.050;9.974;2023-11-21T07:24:36;6.07;;;4.03;;
11590;SDS011;5851;54.050;9.974;2023-11-21T07:27:03;4.93;;;3.87;;
11590;SDS011;5851;54.050;9.974;2023-11-21T07:29:30;5.97;;;3.77;;
11590;SDS011;5851;54.050;9.974;2023-11-21T07:31:58;6.20;;;4.10;;
11590;SDS011;5851;54.050;9.974;2023-11-21T07:34:27;7.63;;;4.40;;
11590;SDS011;5851;54.050;9.974;2023-11-21T07:36:54;5.70;;;4.30;;
11590;SDS011;5851;54.050;9.974;2023-11-21T07:39:20;6.97;;;3.70;;
11590;SDS011;5851;54.050;9.974;2023-11-21T07:41:47;6.47;;;4.00;;
11590;SDS011;5851;54.050;9.974;2023-11-21T07:44:15;7.07;;;4.37;;
11590;SDS011;5851;54.050;9.974;2023-11-21T07:46:43;5.20;;;4.00;;
11590;SDS011;5851;54.050;9.974;2023-11-21T07:49:10;4.90;;;4.23;;
11590;SDS011;5851;54.050;9.974;2023-11-21T07:51:41;6.97;;;4.37;;
11590;SDS011;5851;54.050;9.974;2023-11-21T07:54:08;6.97;;;3.80;;
11590;SDS011;5851;54.050;9.974;2023-11-21T07:56:36;5.87;;;4.33;;
11590;SDS011;5851;54.050;9.974;2023-11-21T07:59:03;4.00;;;3.60;;
11590;SDS011;5851;54.050;9.974;2023-11-21T08:01:30;5.73;;;4.50;;
11590;SDS011;5851;54.050;9.974;2023-11-21T08:03:57;4.70;;;4.20;;
11590;SDS011;5851;54.050;9.974;2023-11-21T08:06:27;5.93;;;4.13;;
11590;SDS011;5851;54.050;9.974;2023-11-21T08:08:55;5.33;;;4.40;;
11590;SDS011;5851;54.050;9.974;2023-11-21T08:11:22;6.90;;;4.07;;
11590;SDS011;5851;54.050;9.974;2023-11-21T08:13:49;6.80;;;4.30;;
11590;SDS011;5851;54.050;9.974;2023-11-21T08:16:16;5.67;;;3.93;;
11590;SDS011;5851;54.050;9.974;2023-11-21T08:18:42;5.90;;;4.47;;
11590;SDS011;5851;54.050;9.974;2023-11-21T08:21:11;4.70;;;4.10;;
11590;SDS011;5851;54.050;9.974;2023-11-21T08:23:38;5.43;;;4.20;;
11590;SDS011;5851;54.050;9.974;2023-11-21T08:26:07;6.63;;;4.10;;
11590;SDS011;5851;54.050;9.974;2023-11-21T08:28:34;7.23;;;3.90;;
11590;SDS011;5851;54.050;9.974;2023-11-21T08:31:01;4.13;;;3.70;;
11590;SDS011;5851;54.050;9.974;2023-11-21T08:33:29;4.63;;;3.90;;
11590;SDS011;5851;54.050;9.974;2023-11-21T08:35:56;6.00;;;3.80;;
11590;SDS011;5851;54.050;9.974;2023-11-21T08:38:23;7.87;;;4.20;;
11590;SDS011;5851;54.050;9.974;2023-11-21T08:40:50;5.30;;;4.07;;
11590;SDS011;5851;54.050;9.974;2023-11-21T08:43:18;5.13;;;3.97;;
11590;SDS011;5851;54.050;9.974;2023-11-21T08:45:45;6.30;;;3.80;;
11590;SDS011;5851;54.050;9.974;2023-11-21T08:48:12;7.07;;;4.43;;
11590;SDS011;5851;54.050;9.974;2023-11-21T08:50:39;4.97;;;4.13;;
11590;SDS011;5851;54.050;9.974;2023-11-21T08:53:06;6.70;;;3.93;;
11590;SDS011;5851;54.050;9.974;2023-11-21T08:55:33;8.03;;;4.63;;
11590;SDS011;5851;54.050;9.974;2023-11-21T08:58:02;5.23;;;3.83;;
11590;SDS011;5851;54.050;9.974;2023-11-21T09:00:32;6.00;;;4.53;;
11590;SDS011;5851;54.050;9.974;2023-11-21T09:02:59;6.27;;;4.07;;
11590;SDS011;5851;54.050;9.974;2023-11-21T09:05:28;5.27;;;4.33;;
11590;SDS011;5851;54.050;9.974;2023-11-21T09:07:55;6.90;;;4.50;;
11590;SDS011;5851;54.050;9.974;2023-11-21T09:10:22;6.87;;;4.77;;
11590;SDS011;5851;54.050;9.974;2023-11-21T09:12:50;5.10;;;4.10;;
11590;SDS011;5851;54.050;9.974;2023-11-21T09:15:17;7.00;;;4.60;;
11590;SDS011;5851;54.050;9.974;2023-11-21T09:17:46;7.00;;;4.20;;
11590;SDS011;5851;54.050;9.974;2023-11-21T09:20:13;7.03;;;4.10;;
11590;SDS011;5851;54.050;9.974;2023-11-21T09:22:41;6.27;;;3.90;;
11590;SDS011;5851;54.050;9.974;2023-11-21T09:25:09;5.47;;;4.07;;
11590;SDS011;5851;54.050;9.974;2023-11-21T09:27:37;6.17;;;4.07;;
11590;SDS011;5851;54.050;9.974;2023-11-21T09:30:04;4.87;;;3.73;;
11590;SDS011;5851;54.050;9.974;2023-11-21T09:32:34;6.17;;;3.80;;
11590;SDS011;5851;54.050;9.974;2023-11-21T09:35:03;5.23;;;4.10;;
11590;SDS011;5851;54.050;9.974;2023-11-21T09:37:33;5.47;;;3.80;;
11590;SDS011;5851;54.050;9.974;2023-11-21T09:40:01;6.40;;;3.97;;
11590;SDS011;5851;54.050;9.974;2023-11-21T09:42:30;8.03;;;4.27;;
11590;SDS011;5851;54.050;9.974;2023-11-21T09:45:03;4.27;;;3.70;;
11590;SDS011;5851;54.050;9.974;2023-11-21T09:47:35;5.50;;;3.67;;
11590;SDS011;5851;54.050;9.974;2023-11-21T09:50:06;6.63;;;3.90;;
11590;SDS011;5851;54.050;9.974;2023-11-21T09:52:38;5.83;;;4.03;;
11590;SDS011;5851;54.050;9.974;2023-11-21T09:55:14;4.77;;;3.90;;
11590;SDS011;5851;54.050;9.974;2023-11-21T09:57:46;4.73;;;3.67;;
11590;SDS011;5851;54.050;9.974;2023-11-21T10:00:15;6.03;;;4.10;;
11590;SDS011;5851;54.050;9.974;2023-11-21T10:02:45;5.27;;;3.80;;
11590;SDS011;5851;54.050;9.974;2023-11-21T10:05:16;6.13;;;3.80;;
11590;SDS011;5851;54.050;9.974;2023-11-21T10:07:45;4.57;;;3.93;;
11590;SDS011;5851;54.050;9.974;2023-11-21T10:10:12;5.77;;;3.70;;
11590;SDS011;5851;54.050;9.974;2023-11-21T10:12:44;4.50;;;3.43;;
11590;SDS011;5851;54.050;9.974;2023-11-21T10:15:16;4.63;;;3.40;;
11590;SDS011;5851;54.050;9.974;2023-11-21T10:17:44;5.20;;;3.40;;
11590;SDS011;5851;54.050;9.974;2023-11-21T10:20:12;4.43;;;3.10;;
11590;SDS011;5851;54.050;9.974;2023-11-21T10:22:42;3.40;;;2.77;;
11590;SDS011;5851;54.050;9.974;2023-11-21T10:25:09;6.10;;;2.87;;
11590;SDS011;5851;54.050;9.974;2023-11-21T10:27:39;4.33;;;2.53;;
11590;SDS011;5851;54.050;9.974;2023-11-21T10:30:08;3.67;;;2.60;;
11590;SDS011;5851;54.050;9.974;2023-11-21T10:32:37;4.70;;;2.80;;
11590;SDS011;5851;54.050;9.974;2023-11-21T10:35:05;4.60;;;3.07;;
11590;SDS011;5851;54.050;9.974;2023-11-21T10:37:35;5.53;;;3.20;;
11590;SDS011;5851;54.050;9.974;2023-11-21T10:40:06;4.97;;;2.97;;
11590;SDS011;5851;54.050;9.974;2023-11-21T10:42:37;4.77;;;3.00;;
11590;SDS011;5851;54.050;9.974;2023-11-21T10:45:04;3.37;;;2.83;;
11590;SDS011;5851;54.050;9.974;2023-11-21T10:47:37;4.97;;;3.20;;
11590;SDS011;5851;54.050;9.974;2023-11-21T10:50:05;3.80;;;2.90;;
11590;SDS011;5851;54.050;9.974;2023-11-21T10:52:36;3.40;;;2.93;;
11590;SDS011;5851;54.050;9.974;2023-11-21T10:55:12;3.30;;;3.00;;
11590;SDS011;5851;54.050;9.974;2023-11-21T10:57:42;3.53;;;2.97;;
11590;SDS011;5851;54.050;9.974;2023-11-21T11:00:12;5.40;;;3.80;;
11590;SDS011;5851;54.050;9.974;2023-11-21T11:02:40;3.20;;;2.90;;
11590;SDS011;5851;54.050;9.974;2023-11-21T11:05:08;4.43;;;3.20;;
11590;SDS011;5851;54.050;9.974;2023-11-21T11:07:36;4.63;;;3.23;;
11590;SDS011;5851;54.050;9.974;2023-11-21T11:10:08;3.20;;;2.90;;
11590;SDS011;5851;54.050;9.974;2023-11-21T11:12:40;3.97;;;3.10;;
11590;SDS011;5851;54.050;9.974;2023-11-21T11:15:08;5.40;;;3.27;;
11590;SDS011;5851;54.050;9.974;2023-11-21T11:17:35;4.90;;;3.23;;
11590;SDS011;5851;54.050;9.974;2023-11-21T11:20:05;4.93;;;3.37;;
11590;SDS011;5851;54.050;9.974;2023-11-21T11:22:36;5.27;;;3.53;;
11590;SDS011;5851;54.050;9.974;2023-11-21T11:28:07;5.13;;;3.53;;
11590;SDS011;5851;54.050;9.974;2023-11-21T11:30:45;5.73;;;3.60;;
11590;SDS011;5851;54.050;9.974;2023-11-21T11:33:22;4.90;;;3.03;;
11590;SDS011;5851;54.050;9.974;2023-11-21T11:36:00;4.87;;;3.30;;
11590;SDS011;5851;54.050;9.974;2023-11-21T11:38:33;7.17;;;3.40;;
11590;SDS011;5851;54.050;9.974;2023-11-21T11:41:01;3.80;;;3.13;;
11590;SDS011;5851;54.050;9.974;2023-11-21T11:43:31;5.47;;;3.50;;
11590;SDS011;5851;54.050;9.974;2023-11-21T11:46:05;5.47;;;3.60;;
11590;SDS011;5851;54.050;9.974;2023-11-21T11:48:34;4.10;;;3.30;;
11590;SDS011;5851;54.050;9.974;2023-11-21T11:51:04;5.60;;;3.77;;
11590;SDS011;5851;54.050;9.974;2023-11-21T11:53:37;4.47;;;3.20;;
11590;SDS011;5851;54.050;9.974;2023-11-21T11:56:21;4.90;;;3.57;;
11590;SDS011;5851;54.050;9.974;2023-11-21T11:58:52;4.83;;;3.13;;
11590;SDS011;5851;54.050;9.974;2023-11-21T12:01:20;3.87;;;3.17;;
11590;SDS011;5851;54.050;9.974;2023-11-21T12:06:55;10.33;;;6.10;;
11590;SDS011;5851;54.050;9.974;2023-11-21T12:09:24;9.17;;;5.70;;
11590;SDS011;5851;54.050;9.974;2023-11-21T12:11:52;6.73;;;4.50;;
11590;SDS011;5851;54.050;9.974;2023-11-21T12:14:21;8.37;;;4.80;;
11590;SDS011;5851;54.050;9.974;2023-11-21T12:16:48;8.57;;;4.07;;
11590;SDS011;5851;54.050;9.974;2023-11-21T12:19:16;5.50;;;3.40;;
11590;SDS011;5851;54.050;9.974;2023-11-21T12:21:43;6.57;;;3.47;;
11590;SDS011;5851;54.050;9.974;2023-11-21T12:24:11;4.77;;;3.60;;
11590;SDS011;5851;54.050;9.974;2023-11-21T12:26:39;7.00;;;4.60;;
11590;SDS011;5851;54.050;9.974;2023-11-21T12:29:05;4.43;;;3.37;;
11590;SDS011;5851;54.050;9.974;2023-11-21T12:31:35;3.57;;;2.60;;
11590;SDS011;5851;54.050;9.974;2023-11-21T12:34:02;5.07;;;3.30;;
11590;SDS011;5851;54.050;9.974;2023-11-21T12:36:29;4.63;;;3.17;;
11590;SDS011;5851;54.050;9.974;2023-11-21T12:38:56;3.47;;;3.00;;
11590;SDS011;5851;54.050;9.974;2023-11-21T12:41:23;6.93;;;3.07;;
11590;SDS011;5851;54.050;9.974;2023-11-21T12:43:50;4.00;;;3.23;;
11590;SDS011;5851;54.050;9.974;2023-11-21T12:46:17;4.10;;;3.33;;
11590;SDS011;5851;54.050;9.974;2023-11-21T12:48:46;5.33;;;2.90;;
11590;SDS011;5851;54.050;9.974;2023-11-21T12:51:14;5.73;;;3.10;;
11590;SDS011;5851;54.050;9.974;2023-11-21T12:53:43;4.53;;;3.43;;
11590;SDS011;5851;54.050;9.974;2023-11-21T12:56:12;5.57;;;3.67;;
11590;SDS011;5851;54.050;9.974;2023-11-21T12:58:45;4.77;;;3.10;;
11590;SDS011;5851;54.050;9.974;2023-11-21T13:01:13;4.53;;;3.03;;
11590;SDS011;5851;54.050;9.974;2023-11-21T13:03:44;3.70;;;3.20;;
11590;SDS011;5851;54.050;9.974;2023-11-21T13:06:16;3.73;;;2.90;;
11590;SDS011;5851;54.050;9.974;2023-11-21T13:08:44;5.90;;;3.23;;
11590;SDS011;5851;54.050;9.974;2023-11-21T13:11:11;3.70;;;2.67;;
11590;SDS011;5851;54.050;9.974;2023-11-21T13:13:40;2.60;;;2.40;;
11590;SDS011;5851;54.050;9.974;2023-11-21T13:16:08;2.93;;;2.63;;
11590;SDS011;5851;54.050;9.974;2023-11-21T13:18:36;4.50;;;2.83;;
11590;SDS011;5851;54.050;9.974;2023-11-21T13:21:07;3.20;;;2.90;;
11590;SDS011;5851;54.050;9.974;2023-11-21T13:23:38;4.37;;;2.80;;
11590;SDS011;5851;54.050;9.974;2023-11-21T13:26:06;3.30;;;3.00;;
11590;SDS011;5851;54.050;9.974;2023-11-21T13:28:34;5.23;;;3.00;;
11590;SDS011;5851;54.050;9.974;2023-11-21T13:31:02;5.73;;;3.50;;
11590;SDS011;5851;54.050;9.974;2023-11-21T13:33:34;5.47;;;3.20;;
11590;SDS011;5851;54.050;9.974;2023-11-21T13:36:03;7.17;;;4.90;;
11590;SDS011;5851;54.050;9.974;2023-11-21T13:38:34;5.53;;;3.73;;
11590;SDS011;5851;54.050;9.974;2023-11-21T13:41:02;6.43;;;4.03;;
11590;SDS011;5851;54.050;9.974;2023-11-21T13:43:32;3.93;;;2.83;;
11590;SDS011;5851;54.050;9.974;2023-11-21T13:45:59;3.83;;;2.90;;
11590;SDS011;5851;54.050;9.974;2023-11-21T13:48:33;3.70;;;2.67;;
11590;SDS011;5851;54.050;9.974;2023-11-21T13:51:07;3.60;;;3.13;;
11590;SDS011;5851;54.050;9.974;2023-11-21T13:53:42;4.17;;;3.23;;
11590;SDS011;5851;54.050;9.974;2023-11-21T13:56:10;6.70;;;3.50;;
11590;SDS011;5851;54.050;9.974;2023-11-21T13:58:41;4.30;;;3.30;;
11590;SDS011;5851;54.050;9.974;2023-11-21T14:01:12;5.53;;;3.10;;
11590;SDS011;5851;54.050;9.974;2023-11-21T14:03:57;4.03;;;2.63;;
11590;SDS011;5851;54.050;9.974;2023-11-21T14:06:33;3.53;;;2.60;;
11590;SDS011;5851;54.050;9.974;2023-11-21T14:09:10;3.10;;;2.40;;
11590;SDS011;5851;54.050;9.974;2023-11-21T14:11:39;4.60;;;2.93;;
11590;SDS011;5851;54.050;9.974;2023-11-21T14:14:05;3.40;;;2.70;;
11590;SDS011;5851;54.050;9.974;2023-11-21T14:16:32;4.57;;;2.70;;
11590;SDS011;5851;54.050;9.974;2023-11-21T14:18:59;3.93;;;2.40;;
11590;SDS011;5851;54.050;9.974;2023-11-21T14:21:39;3.23;;;2.57;;
11590;SDS011;5851;54.050;9.974;2023-11-21T14:24:09;3.83;;;2.43;;
11590;SDS011;5851;54.050;9.974;2023-11-21T14:26:38;2.63;;;2.13;;
11590;SDS011;5851;54.050;9.974;2023-11-21T14:29:07;2.73;;;2.30;;
11590;SDS011;5851;54.050;9.974;2023-11-21T14:31:36;3.33;;;2.50;;
11590;SDS011;5851;54.050;9.974;2023-11-21T14:34:03;3.67;;;2.33;;
11590;SDS011;5851;54.050;9.974;2023-11-21T14:36:32;3.93;;;2.80;;
11590;SDS011;5851;54.050;9.974;2023-11-21T14:38:58;4.40;;;2.57;;
11590;SDS011;5851;54.050;9.974;2023-11-21T14:41:27;4.10;;;2.90;;
11590;SDS011;5851;54.050;9.974;2023-11-21T14:43:54;5.13;;;3.00;;
11590;SDS011;5851;54.050;9.974;2023-11-21T14:46:22;4.80;;;3.67;;
11590;SDS011;5851;54.050;9.974;2023-11-21T14:48:50;4.97;;;3.50;;
11590;SDS011;5851;54.050;9.974;2023-11-21T14:51:25;3.40;;;2.77;;
11590;SDS011;5851;54.050;9.974;2023-11-21T14:53:52;3.97;;;3.27;;
11590;SDS011;5851;54.050;9.974;2023-11-21T14:56:19;5.47;;;3.67;;
11590;SDS011;5851;54.050;9.974;2023-11-21T14:58:53;4.73;;;2.93;;
11590;SDS011;5851;54.050;9.974;2023-11-21T15:01:22;3.23;;;2.63;;
11590;SDS011;5851;54.050;9.974;2023-11-21T15:04:01;3.30;;;2.60;;
11590;SDS011;5851;54.050;9.974;2023-11-21T15:06:31;3.93;;;2.73;;
11590;SDS011;5851;54.050;9.974;2023-11-21T15:08:57;6.93;;;3.17;;
11590;SDS011;5851;54.050;9.974;2023-11-21T15:11:41;4.77;;;3.10;;
11590;SDS011;5851;54.050;9.974;2023-11-21T15:14:09;4.17;;;2.97;;